Time;durP1;ratioP1;P1;durP2;ratioP2;P2;SDS_P1;SDS_P2;PMS_P1;PMS_P2;Temp;Humidity;BMP_temperature;BMP_pressure;BME280_temperature;BME280_humidity;BME280_pressure;Samples;Min_cycle;Max_cycle;Signal;HPM_P1;HPM_P2
2023/04/22 00:00:32;;;;;;;12.02;8.82;;;12.00;99.90;;;;;;5037518;28;20088;-57
2023/04/22 00:03:00;;;;;;;13.75;9.13;;;12.00;99.90;;;;;;5037639;28;20046;-57
2023/04/22 00:05:26;;;;;;;10.90;7.75;;;12.00;99.90;;;;;;5037851;28;20056;-57
2023/04/22 00:07:51;;;;;;;12.85;8.63;;;11.90;99.90;;;;;;5036927;28;20046;-57
2023/04/22 00:10:17;;;;;;;11.40;8.30;;;11.90;99.90;;;;;;5037878;28;20042;-58
2023/04/22 00:12:43;;;;;;;10.95;8.00;;;11.90;99.90;;;;;;5037918;28;20041;-57
2023/04/22 00:15:09;;;;;;;11.15;8.27;;;11.90;99.90;;;;;;5019901;28;20045;-57
2023/04/22 00:17:35;;;;;;;10.73;7.95;;;12.00;99.90;;;;;;5037435;28;20041;-58
2023/04/22 00:20:01;;;;;;;11.20;7.82;;;11.90;99.90;;;;;;5037677;28;20053;-57
2023/04/22 00:22:28;;;;;;;10.52;7.97;;;12.00;99.90;;;;;;5037559;28;20080;-58
2023/04/22 00:24:53;;;;;;;10.10;7.40;;;12.00;99.90;;;;;;5037742;28;20041;-58
2023/04/22 00:27:19;;;;;;;11.48;8.10;;;11.90;99.90;;;;;;5037988;28;20041;-57
2023/04/22 00:29:45;;;;;;;10.18;7.75;;;12.00;99.90;;;;;;5037505;28;20690;-57
2023/04/22 00:32:10;;;;;;;9.75;7.40;;;11.90;99.90;;;;;;5037499;28;20038;-56
2023/04/22 00:34:36;;;;;;;11.20;7.90;;;11.90;99.90;;;;;;5037467;28;20041;-57
2023/04/22 00:37:02;;;;;;;10.30;7.65;;;11.90;99.90;;;;;;5037446;28;20045;-58
2023/04/22 00:39:27;;;;;;;10.82;7.95;;;11.90;99.90;;;;;;5036855;28;20046;-57
2023/04/22 00:41:54;;;;;;;11.27;7.95;;;11.90;99.90;;;;;;5037463;28;20052;-57
2023/04/22 00:44:21;;;;;;;12.18;8.25;;;11.80;99.90;;;;;;5037419;28;20076;-57
2023/04/22 00:46:48;;;;;;;10.68;7.75;;;11.70;99.90;;;;;;5037325;28;20135;-57
2023/04/22 00:49:14;;;;;;;11.55;8.00;;;11.70;99.90;;;;;;5037345;28;20386;-57
2023/04/22 00:51:40;;;;;;;11.90;8.10;;;11.70;99.90;;;;;;5037291;28;20030;-57
2023/04/22 00:54:06;;;;;;;10.85;8.10;;;11.60;99.90;;;;;;5037167;28;20077;-57
2023/04/22 00:56:34;;;;;;;10.40;8.07;;;11.50;99.90;;;;;;5037278;28;20046;-57
2023/04/22 00:59:00;;;;;;;11.25;8.10;;;11.50;99.90;;;;;;5036951;28;20094;-57
2023/04/22 01:01:26;;;;;;;11.88;8.23;;;11.40;99.90;;;;;;5037356;28;20073;-57
2023/04/22 01:03:53;;;;;;;10.50;8.18;;;11.40;99.90;;;;;;5037158;28;20045;-57
2023/04/22 01:06:21;;;;;;;10.73;8.63;;;11.40;99.90;;;;;;5037354;28;20045;-57
2023/04/22 01:08:47;;;;;;;13.73;8.85;;;11.40;99.90;;;;;;5037069;28;20061;-57
2023/04/22 01:11:13;;;;;;;11.55;8.93;;;11.30;99.90;;;;;;5036951;28;20052;-56
2023/04/22 01:13:39;;;;;;;13.30;8.65;;;11.20;99.90;;;;;;5036837;28;20045;-57
2023/04/22 01:16:08;;;;;;;12.77;9.68;;;11.20;99.90;;;;;;5036898;28;20694;-57
2023/04/22 01:18:37;;;;;;;11.95;9.50;;;11.20;99.90;;;;;;5037688;28;20076;-57
2023/04/22 01:21:03;;;;;;;13.30;10.07;;;11.20;99.90;;;;;;5040883;28;20095;-57
2023/04/22 01:23:29;;;;;;;13.45;9.63;;;11.10;99.90;;;;;;5040814;28;20129;-57
2023/04/22 01:25:56;;;;;;;12.80;9.65;;;11.10;99.90;;;;;;5040797;28;20045;-57
2023/04/22 01:28:22;;;;;;;13.73;9.40;;;11.10;99.90;;;;;;5040533;28;20120;-57
2023/04/22 01:30:48;;;;;;;12.45;9.77;;;11.10;99.90;;;;;;5040235;28;20081;-57
2023/04/22 01:33:15;;;;;;;12.00;9.68;;;11.20;99.90;;;;;;5040557;28;20040;-57
2023/04/22 01:35:41;;;;;;;11.82;9.50;;;11.00;99.90;;;;;;5040599;28;20856;-56
2023/04/22 01:38:08;;;;;;;13.02;9.68;;;11.10;99.90;;;;;;5040334;28;20053;-57
2023/04/22 01:40:34;;;;;;;13.27;10.00;;;11.10;99.90;;;;;;5040580;28;20040;-57
2023/04/22 01:43:00;;;;;;;12.02;9.93;;;11.10;99.90;;;;;;5040380;28;20052;-57
2023/04/22 01:45:26;;;;;;;15.38;10.32;;;11.10;99.90;;;;;;5040223;28;20041;-57
2023/04/22 01:47:52;;;;;;;13.63;9.98;;;11.10;99.90;;;;;;5040168;28;20060;-58
2023/04/22 01:50:19;;;;;;;12.63;10.07;;;11.00;99.90;;;;;;5040114;28;20045;-57
2023/04/22 01:52:44;;;;;;;14.95;10.27;;;11.10;99.90;;;;;;5040486;28;20061;-57
2023/04/22 01:55:10;;;;;;;13.48;11.35;;;11.10;99.90;;;;;;5022208;28;20050;-56
2023/04/22 01:57:36;;;;;;;13.70;9.93;;;10.90;99.90;;;;;;5040056;28;20057;-57
2023/04/22 02:00:04;;;;;;;16.88;10.50;;;10.90;99.90;;;;;;5040174;28;20037;-57
2023/04/22 02:02:30;;;;;;;12.63;10.43;;;10.80;99.90;;;;;;5040046;28;20033;-57
2023/04/22 02:04:56;;;;;;;16.00;10.98;;;10.80;99.90;;;;;;5039722;28;20045;-57
2023/04/22 02:07:21;;;;;;;14.25;11.00;;;10.90;99.90;;;;;;5039983;28;20104;-57
2023/04/22 02:09:48;;;;;;;13.50;10.25;;;10.80;99.90;;;;;;5039652;28;20045;-57
2023/04/22 02:12:13;;;;;;;14.70;10.65;;;10.80;99.90;;;;;;5040032;28;20053;-57
2023/04/22 02:14:39;;;;;;;14.45;11.30;;;10.80;99.90;;;;;;5039880;28;20052;-58
2023/04/22 02:17:05;;;;;;;15.77;12.20;;;10.80;99.90;;;;;;5039756;28;20496;-57
2023/04/22 02:19:30;;;;;;;15.02;11.68;;;10.80;99.90;;;;;;5039696;28;20087;-57
2023/04/22 02:21:56;;;;;;;14.02;11.73;;;10.80;99.90;;;;;;5039467;28;20041;-55
2023/04/22 02:24:22;;;;;;;15.02;10.80;;;10.70;99.90;;;;;;5039719;28;20092;-57
2023/04/22 02:26:48;;;;;;;14.57;11.02;;;10.80;99.90;;;;;;5039274;28;20041;-57
2023/04/22 02:29:15;;;;;;;13.50;10.73;;;10.70;99.90;;;;;;5039534;28;20042;-57
2023/04/22 02:31:41;;;;;;;14.27;11.05;;;10.60;99.90;;;;;;5020635;28;20555;-57
2023/04/22 02:34:06;;;;;;;15.45;11.13;;;10.60;99.90;;;;;;5039758;28;20050;-56
2023/04/22 02:36:33;;;;;;;13.02;10.52;;;10.70;99.90;;;;;;5039433;28;20073;-57
2023/04/22 02:39:00;;;;;;;16.10;11.45;;;10.70;99.90;;;;;;5038954;28;20093;-57
2023/04/22 02:41:26;;;;;;;15.07;11.45;;;10.60;99.90;;;;;;5039236;28;20057;-58
2023/04/22 02:43:52;;;;;;;16.92;13.02;;;10.60;99.90;;;;;;5039082;28;20073;-57
2023/04/22 02:46:17;;;;;;;17.20;12.68;;;10.60;99.90;;;;;;5039363;28;20042;-56
2023/04/22 02:48:43;;;;;;;15.85;12.82;;;10.60;99.90;;;;;;5039243;28;20041;-57
2023/04/22 02:51:10;;;;;;;17.67;12.60;;;10.50;99.90;;;;;;5039119;28;20496;-56
2023/04/22 02:53:35;;;;;;;15.52;12.13;;;10.50;99.90;;;;;;5039114;28;20049;-57
2023/04/22 02:56:01;;;;;;;14.95;12.35;;;10.50;99.90;;;;;;5038902;28;20126;-57
2023/04/22 02:58:27;;;;;;;15.07;12.35;;;10.40;99.90;;;;;;5039167;28;20520;-57
2023/04/22 03:00:53;;;;;;;14.18;11.85;;;10.40;99.90;;;;;;5038750;28;20093;-57
2023/04/22 03:03:19;;;;;;;16.50;12.38;;;10.40;99.90;;;;;;5021078;28;20050;-57
2023/04/22 03:05:44;;;;;;;15.73;11.73;;;10.30;99.90;;;;;;5038966;28;20075;-57
2023/04/22 03:08:10;;;;;;;15.75;12.48;;;10.30;99.90;;;;;;5038738;28;20153;-54
2023/04/22 03:10:35;;;;;;;15.75;12.98;;;10.30;99.90;;;;;;5038873;28;20056;-57
2023/04/22 03:13:01;;;;;;;15.02;12.35;;;10.20;99.90;;;;;;5038923;28;20052;-57
2023/04/22 03:15:27;;;;;;;15.05;12.05;;;10.10;99.90;;;;;;5038729;28;20124;-57
2023/04/22 03:17:53;;;;;;;14.60;12.23;;;10.20;99.90;;;;;;5038673;28;20045;-57
2023/04/22 03:20:19;;;;;;;15.45;13.23;;;10.10;99.90;;;;;;5038445;28;20041;-57
2023/04/22 03:22:45;;;;;;;14.40;12.43;;;10.00;99.90;;;;;;5038748;28;20037;-57
2023/04/22 03:25:11;;;;;;;17.42;13.05;;;10.00;99.90;;;;;;5038497;28;20081;-57
2023/04/22 03:27:36;;;;;;;14.60;12.93;;;10.00;99.90;;;;;;5038400;28;20053;-57
2023/04/22 03:30:03;;;;;;;15.75;12.93;;;10.00;99.90;;;;;;5038588;28;20045;-57
2023/04/22 03:32:29;;;;;;;17.25;14.05;;;10.00;99.90;;;;;;5038393;28;20401;-57
2023/04/22 03:34:55;;;;;;;16.42;13.75;;;10.00;99.90;;;;;;5038340;28;20045;-57
2023/04/22 03:37:20;;;;;;;14.93;12.55;;;9.90;99.90;;;;;;5037883;28;20061;-57
2023/04/22 03:39:46;;;;;;;15.02;13.07;;;9.80;99.90;;;;;;5038341;28;20551;-58
2023/04/22 03:42:13;;;;;;;14.43;12.18;;;10.00;99.90;;;;;;5037854;28;20455;-57
2023/04/22 03:44:39;;;;;;;15.32;12.48;;;9.70;99.90;;;;;;5038336;28;20145;-57
2023/04/22 03:47:05;;;;;;;15.80;12.63;;;9.70;99.90;;;;;;5037997;28;20046;-57
2023/04/22 03:49:31;;;;;;;16.55;12.30;;;9.70;99.90;;;;;;5038126;28;20041;-56
2023/04/22 03:51:57;;;;;;;16.13;13.65;;;9.70;99.90;;;;;;5037695;28;20060;-57
2023/04/22 03:54:23;;;;;;;18.15;13.38;;;9.80;99.90;;;;;;5038159;28;20041;-58
2023/04/22 03:56:49;;;;;;;17.02;13.45;;;9.80;99.90;;;;;;5037894;28;20057;-57
2023/04/22 03:59:15;;;;;;;18.23;14.30;;;9.80;99.90;;;;;;5037789;28;20100;-57
2023/04/22 04:01:40;;;;;;;16.88;13.07;;;9.80;99.90;;;;;;5037964;28;20064;-58
2023/04/22 04:04:06;;;;;;;16.48;12.57;;;9.70;99.90;;;;;;5038045;28;20049;-57
2023/04/22 04:06:32;;;;;;;14.82;11.70;;;9.60;99.90;;;;;;5037481;28;20053;-57
2023/04/22 04:08:58;;;;;;;14.05;11.65;;;9.60;99.90;;;;;;5037578;28;20051;-57
2023/04/22 04:11:23;;;;;;;15.13;12.07;;;9.50;99.90;;;;;;5020025;28;20037;-57
2023/04/22 04:13:49;;;;;;;14.88;12.18;;;9.40;99.90;;;;;;5037776;28;20045;-57
2023/04/22 04:16:15;;;;;;;15.38;12.05;;;9.40;99.90;;;;;;5037289;28;20061;-57
2023/04/22 04:18:41;;;;;;;15.18;12.52;;;9.40;99.90;;;;;;5038036;28;20041;-57
2023/04/22 04:21:07;;;;;;;14.23;11.85;;;9.40;99.90;;;;;;5037604;28;20055;-57
2023/04/22 04:23:32;;;;;;;17.50;12.75;;;9.40;99.90;;;;;;5037786;28;20068;-57
2023/04/22 04:26:01;;;;;;;15.20;12.85;;;9.30;99.90;;;;;;5037557;28;20041;-58
2023/04/22 04:28:31;;;;;;;15.13;12.20;;;9.40;99.90;;;;;;5037608;28;20068;-57
2023/04/22 04:30:58;;;;;;;16.50;12.88;;;9.30;99.90;;;;;;5037307;28;20140;-58
2023/04/22 04:33:24;;;;;;;16.13;12.75;;;9.40;99.90;;;;;;5037551;28;20048;-57
2023/04/22 04:35:51;;;;;;;16.58;13.23;;;9.40;99.90;;;;;;5037546;28;20045;-57
2023/04/22 04:38:17;;;;;;;15.55;12.95;;;9.40;99.90;;;;;;5037324;28;20052;-57
2023/04/22 04:40:44;;;;;;;16.30;12.65;;;9.30;99.90;;;;;;5037427;28;20350;-57
2023/04/22 04:43:11;;;;;;;17.85;13.60;;;9.50;99.90;;;;;;5037435;28;20050;-56
2023/04/22 04:45:38;;;;;;;18.55;13.75;;;9.50;99.90;;;;;;5037644;28;20420;-57
2023/04/22 04:48:07;;;;;;;18.90;14.65;;;9.60;99.90;;;;;;5037150;28;20042;-58
2023/04/22 04:50:33;;;;;;;20.23;14.30;;;9.70;99.90;;;;;;5037165;28;20056;-56
2023/04/22 04:52:59;;;;;;;18.60;14.80;;;9.60;99.90;;;;;;5037544;28;20037;-57
2023/04/22 04:55:25;;;;;;;16.88;14.35;;;9.70;99.90;;;;;;5041070;28;20059;-57
2023/04/22 04:57:50;;;;;;;17.73;14.80;;;9.70;99.90;;;;;;5041520;28;20425;-57
2023/04/22 05:00:16;;;;;;;20.27;14.40;;;9.70;99.90;;;;;;5041330;28;20042;-57
2023/04/22 05:02:42;;;;;;;17.85;14.10;;;9.80;99.90;;;;;;5041207;28;20037;-55
2023/04/22 05:05:08;;;;;;;16.70;12.98;;;9.70;99.90;;;;;;5040940;28;20064;-57
2023/04/22 05:07:34;;;;;;;15.85;12.98;;;9.70;99.90;;;;;;5040754;28;20488;-56
2023/04/22 05:10:00;;;;;;;18.83;13.38;;;9.70;99.90;;;;;;5041316;28;20045;-57
2023/04/22 05:12:26;;;;;;;16.50;12.60;;;9.70;99.90;;;;;;5041013;28;20049;-57
2023/04/22 05:14:52;;;;;;;17.35;13.07;;;9.70;99.90;;;;;;5040935;28;20118;-57
2023/04/22 05:17:18;;;;;;;17.98;13.02;;;9.70;99.90;;;;;;5040879;28;20046;-57
2023/04/22 05:19:44;;;;;;;15.60;12.05;;;9.70;99.90;;;;;;5040685;28;20041;-57
2023/04/22 05:22:10;;;;;;;16.20;12.25;;;9.80;99.90;;;;;;5040830;28;20072;-57
2023/04/22 05:24:36;;;;;;;16.85;12.65;;;9.90;99.90;;;;;;5040764;28;20049;-57
2023/04/22 05:27:02;;;;;;;15.65;12.32;;;9.70;99.90;;;;;;5040798;28;20053;-57
2023/04/22 05:29:28;;;;;;;15.30;11.98;;;9.80;99.90;;;;;;5040549;28;20041;-56
2023/04/22 05:31:53;;;;;;;16.52;12.43;;;9.80;99.90;;;;;;5040779;28;20433;-57
2023/04/22 05:34:19;;;;;;;14.55;11.88;;;9.80;99.90;;;;;;5040546;28;20136;-57
2023/04/22 05:36:45;;;;;;;17.70;13.38;;;9.90;99.90;;;;;;5040681;28;20052;-57
2023/04/22 05:39:11;;;;;;;16.38;12.82;;;9.80;99.90;;;;;;5040081;28;20045;-57
2023/04/22 05:41:37;;;;;;;16.25;13.25;;;10.00;99.90;;;;;;5040638;28;20531;-56
2023/04/22 05:44:03;;;;;;;16.23;13.77;;;9.90;99.90;;;;;;5040424;28;20046;-57
2023/04/22 05:46:29;;;;;;;16.10;13.32;;;10.00;99.90;;;;;;5040357;28;20041;-58
2023/04/22 05:48:55;;;;;;;16.58;13.27;;;10.10;99.90;;;;;;5040003;28;20056;-57
2023/04/22 05:51:22;;;;;;;17.27;13.80;;;10.10;99.90;;;;;;5040174;28;20045;-58
2023/04/22 05:53:48;;;;;;;15.52;12.70;;;10.00;99.90;;;;;;5040257;28;20053;-57
2023/04/22 05:56:14;;;;;;;18.33;12.40;;;10.10;99.90;;;;;;5039984;28;20068;-57
2023/04/22 05:58:40;;;;;;;16.40;12.77;;;10.20;99.90;;;;;;5039946;28;20109;-57
2023/04/22 06:01:05;;;;;;;16.58;12.77;;;10.30;99.90;;;;;;5037776;28;20080;-57
2023/04/22 06:03:31;;;;;;;17.17;13.82;;;10.20;99.90;;;;;;5036897;28;20041;-57
2023/04/22 06:05:57;;;;;;;16.67;13.85;;;10.40;99.90;;;;;;5035738;28;20095;-57
2023/04/22 06:08:22;;;;;;;16.77;13.63;;;10.30;99.90;;;;;;5036623;28;20049;-57
2023/04/22 06:10:49;;;;;;;16.23;13.20;;;10.30;99.90;;;;;;5018790;28;20088;-57
2023/04/22 06:13:14;;;;;;;17.67;13.80;;;10.30;99.90;;;;;;5036208;28;20088;-57
2023/04/22 06:15:40;;;;;;;16.70;12.93;;;10.40;99.90;;;;;;5036340;28;20053;-57
2023/04/22 06:18:06;;;;;;;16.15;13.15;;;10.30;99.90;;;;;;5036223;28;20057;-57
2023/04/22 06:20:31;;;;;;;16.45;12.60;;;10.40;99.90;;;;;;5036254;28;20108;-57
2023/04/22 06:22:57;;;;;;;17.23;13.07;;;10.40;99.90;;;;;;5018824;28;20049;-57
2023/04/22 06:25:23;;;;;;;15.50;12.40;;;10.40;99.90;;;;;;5036020;28;20092;-58
2023/04/22 06:27:49;;;;;;;14.95;12.15;;;10.60;99.90;;;;;;5036477;28;20045;-58
2023/04/22 06:30:15;;;;;;;16.60;12.90;;;10.50;99.90;;;;;;5036179;28;20112;-57
2023/04/22 06:32:40;;;;;;;16.23;12.85;;;10.50;99.90;;;;;;5036259;28;20052;-57
2023/04/22 06:35:07;;;;;;;16.58;12.20;;;10.50;99.90;;;;;;5034901;28;20049;-58
2023/04/22 06:37:32;;;;;;;16.50;13.18;;;10.50;99.90;;;;;;5035876;28;20044;-57
2023/04/22 06:39:58;;;;;;;16.13;12.23;;;10.70;99.90;;;;;;5036258;28;20037;-59
2023/04/22 06:42:24;;;;;;;14.80;12.52;;;10.60;99.90;;;;;;5036097;28;20076;-57
2023/04/22 06:44:49;;;;;;;16.75;12.50;;;10.70;99.90;;;;;;5036042;28;20078;-58
2023/04/22 06:47:16;;;;;;;15.88;12.20;;;10.70;99.90;;;;;;5035582;28;20050;-57
2023/04/22 06:49:43;;;;;;;15.95;12.60;;;10.80;99.90;;;;;;5017683;28;20041;-58
2023/04/22 06:52:09;;;;;;;16.73;12.43;;;10.90;99.90;;;;;;5035601;28;20049;-57
2023/04/22 06:54:35;;;;;;;15.48;11.75;;;10.80;99.90;;;;;;5035748;28;20041;-58
2023/04/22 06:57:01;;;;;;;16.50;12.52;;;11.00;99.90;;;;;;5036087;28;20541;-57
2023/04/22 06:59:26;;;;;;;16.98;13.38;;;11.10;99.90;;;;;;5035714;28;20093;-57
2023/04/22 07:01:52;;;;;;;15.40;11.70;;;11.10;99.90;;;;;;5035119;28;20088;-57
2023/04/22 07:04:18;;;;;;;15.02;12.57;;;11.10;99.90;;;;;;5035698;28;20037;-57
2023/04/22 07:06:43;;;;;;;15.75;12.30;;;11.20;99.90;;;;;;5035692;28;20044;-58
2023/04/22 07:09:09;;;;;;;17.98;12.43;;;11.20;99.90;;;;;;5035292;28;20045;-57
2023/04/22 07:11:35;;;;;;;15.18;11.63;;;11.20;99.90;;;;;;5035341;28;20057;-57
2023/04/22 07:14:00;;;;;;;16.55;12.65;;;11.40;99.90;;;;;;5034932;28;20056;-58
2023/04/22 07:16:27;;;;;;;16.35;12.10;;;11.40;99.90;;;;;;5034915;28;20061;-57
2023/04/22 07:18:53;;;;;;;14.85;12.00;;;11.60;99.90;;;;;;5035390;28;20057;-57
2023/04/22 07:21:19;;;;;;;14.85;11.48;;;11.50;99.90;;;;;;5035077;28;20049;-57
2023/04/22 07:23:44;;;;;;;17.10;12.10;;;11.70;99.90;;;;;;5016898;28;20050;-57
2023/04/22 07:26:10;;;;;;;16.05;12.15;;;11.70;99.90;;;;;;5023851;28;20052;-59
2023/04/22 07:28:36;;;;;;;14.95;12.02;;;11.70;99.90;;;;;;5006106;28;20109;-57
2023/04/22 07:31:01;;;;;;;14.82;11.50;;;11.90;99.90;;;;;;5023085;28;20045;-58
2023/04/22 07:33:27;;;;;;;14.82;11.98;;;11.90;99.90;;;;;;5023732;28;20056;-59
2023/04/22 07:35:53;;;;;;;15.30;12.13;;;12.00;99.90;;;;;;5024043;28;20051;-59
2023/04/22 07:38:19;;;;;;;16.95;13.07;;;12.00;99.90;;;;;;5023569;28;20041;-59
2023/04/22 07:40:45;;;;;;;15.00;11.80;;;12.10;99.90;;;;;;5023895;28;20108;-58
2023/04/22 07:43:10;;;;;;;14.73;11.18;;;12.00;99.90;;;;;;5023966;28;20048;-57
2023/04/22 07:45:36;;;;;;;15.05;11.07;;;12.30;99.90;;;;;;5024675;28;20176;-56
2023/04/22 07:48:02;;;;;;;15.95;12.07;;;12.20;99.90;;;;;;5025996;28;20051;-56
2023/04/22 07:50:28;;;;;;;15.02;11.10;;;12.30;99.90;;;;;;5026622;28;20085;-56
2023/04/22 07:52:54;;;;;;;14.00;10.73;;;12.30;99.90;;;;;;5027148;28;20440;-56
2023/04/22 07:55:20;;;;;;;14.55;11.55;;;12.40;99.90;;;;;;5026220;28;20045;-56
2023/04/22 07:57:45;;;;;;;15.10;11.48;;;12.60;99.90;;;;;;5026374;28;20049;-56
2023/04/22 08:00:14;;;;;;;14.40;11.35;;;12.60;99.90;;;;;;5026011;28;20555;-56
2023/04/22 08:02:40;;;;;;;14.80;11.65;;;12.70;99.90;;;;;;5026099;28;20497;-57
2023/04/22 08:05:06;;;;;;;14.93;11.45;;;12.80;99.90;;;;;;5025898;28;20155;-57
2023/04/22 08:07:31;;;;;;;15.13;11.43;;;12.90;99.90;;;;;;5026027;28;20784;-55
2023/04/22 08:09:57;;;;;;;15.25;11.27;;;13.00;99.90;;;;;;5008052;28;20053;-57
2023/04/22 08:12:23;;;;;;;14.20;10.90;;;13.00;99.90;;;;;;5025968;28;20057;-57
2023/04/22 08:14:49;;;;;;;14.68;11.15;;;13.10;99.90;;;;;;5025983;28;20046;-57
2023/04/22 08:17:15;;;;;;;14.02;10.88;;;13.20;99.90;;;;;;5026049;28;20038;-57
2023/04/22 08:19:40;;;;;;;14.50;10.05;;;13.40;99.90;;;;;;5026226;28;20108;-57
2023/04/22 08:22:06;;;;;;;12.50;9.70;;;13.40;99.90;;;;;;5025977;28;20045;-57
2023/04/22 08:24:32;;;;;;;13.30;9.85;;;13.50;99.90;;;;;;5025960;28;20634;-55
2023/04/22 08:26:58;;;;;;;12.80;9.90;;;13.60;99.90;;;;;;5025578;28;20720;-57
2023/04/22 08:29:24;;;;;;;12.73;9.77;;;13.70;99.90;;;;;;5025245;28;20051;-57
2023/04/22 08:31:49;;;;;;;14.25;10.23;;;13.80;99.90;;;;;;5025675;28;20045;-57
2023/04/22 08:34:15;;;;;;;12.38;9.68;;;13.80;99.90;;;;;;5008236;28;20083;-57
2023/04/22 08:36:41;;;;;;;13.60;9.95;;;14.10;99.90;;;;;;5026253;28;20079;-57
2023/04/22 08:39:07;;;;;;;13.70;9.77;;;14.00;99.90;;;;;;5024038;28;20038;-57
2023/04/22 08:41:34;;;;;;;14.48;10.18;;;14.10;99.90;;;;;;5007744;28;20056;-57
2023/04/22 08:44:00;;;;;;;13.02;10.38;;;14.30;99.90;;;;;;5025710;28;20057;-57
2023/04/22 08:46:27;;;;;;;12.40;9.93;;;14.50;99.90;;;;;;5008017;28;20121;-57
2023/04/22 08:48:53;;;;;;;13.95;10.88;;;14.50;99.90;;;;;;5025464;28;20099;-57
2023/04/22 08:51:20;;;;;;;12.52;10.25;;;14.60;99.90;;;;;;5008085;28;20076;-57
2023/04/22 08:53:46;;;;;;;13.27;10.35;;;14.50;99.90;;;;;;5024672;28;20060;-57
2023/04/22 08:56:12;;;;;;;15.55;10.43;;;14.60;99.90;;;;;;5023853;28;20049;-57
2023/04/22 08:58:40;;;;;;;14.45;11.10;;;14.70;99.90;;;;;;5024167;28;20144;-57
2023/04/22 09:01:06;;;;;;;14.73;10.80;;;14.60;99.90;;;;;;5024129;28;20048;-57
2023/04/22 09:03:34;;;;;;;14.23;10.77;;;14.70;99.90;;;;;;5023859;28;20049;-56
2023/04/22 09:06:03;;;;;;;14.57;10.50;;;14.80;99.90;;;;;;5023615;28;20068;-58
2023/04/22 09:08:29;;;;;;;15.32;10.40;;;14.80;99.90;;;;;;5025124;28;20033;-57
2023/04/22 09:10:54;;;;;;;13.57;11.05;;;14.90;99.90;;;;;;5025656;28;20049;-57
2023/04/22 09:13:21;;;;;;;16.35;11.18;;;14.90;99.90;;;;;;5025401;28;20049;-57
2023/04/22 09:15:47;;;;;;;14.60;10.75;;;15.00;99.90;;;;;;5025246;28;20071;-56
2023/04/22 09:18:19;;;;;;;15.88;11.38;;;15.10;99.90;;;;;;5025461;28;20049;-56
2023/04/22 09:20:53;;;;;;;13.13;10.65;;;15.20;99.90;;;;;;5036368;28;20092;-57
2023/04/22 09:23:19;;;;;;;13.88;10.27;;;15.10;99.90;;;;;;5036818;28;20029;-58
2023/04/22 09:25:46;;;;;;;14.20;10.48;;;15.30;99.90;;;;;;5036992;28;20469;-58
2023/04/22 09:28:16;;;;;;;15.77;11.20;;;15.50;99.90;;;;;;5019415;28;20041;-57
2023/04/22 09:30:44;;;;;;;13.70;10.65;;;15.40;99.90;;;;;;5035965;28;20084;-57
2023/04/22 09:33:12;;;;;;;15.60;10.93;;;15.60;99.90;;;;;;5035758;28;20049;-57
2023/04/22 09:35:40;;;;;;;13.48;10.23;;;15.70;99.90;;;;;;5018763;28;20055;-57
2023/04/22 09:38:08;;;;;;;13.23;10.02;;;15.90;99.90;;;;;;5036633;28;20092;-57
2023/04/22 09:40:34;;;;;;;12.90;9.85;;;15.80;99.90;;;;;;5038832;28;20506;-57
2023/04/22 09:43:08;;;;;;;14.65;10.82;;;16.00;99.90;;;;;;5039792;28;20120;-57
2023/04/22 09:45:34;;;;;;;14.55;10.90;;;16.00;99.90;;;;;;5022421;28;20046;-57
2023/04/22 09:48:09;;;;;;;13.82;10.93;;;16.00;99.90;;;;;;5040117;28;20042;-57
2023/04/22 09:50:36;;;;;;;13.38;10.05;;;16.10;99.90;;;;;;5040209;28;20061;-57
2023/04/22 09:53:07;;;;;;;13.82;10.43;;;16.10;99.90;;;;;;5040304;28;20104;-57
2023/04/22 09:55:37;;;;;;;14.02;10.68;;;16.00;99.90;;;;;;5040412;28;20033;-57
2023/04/22 09:58:09;;;;;;;13.98;10.05;;;16.00;99.90;;;;;;5040124;28;20517;-58
2023/04/22 10:00:40;;;;;;;12.88;9.75;;;16.10;99.90;;;;;;5039743;28;20064;-58
2023/04/22 10:03:06;;;;;;;13.90;10.10;;;16.10;99.90;;;;;;5039769;28;20112;-57
2023/04/22 10:05:36;;;;;;;13.30;10.05;;;16.20;99.90;;;;;;5040207;28;20386;-57
2023/04/22 10:08:06;;;;;;;13.90;10.90;;;16.30;99.90;;;;;;5039863;28;20048;-57
2023/04/22 10:10:32;;;;;;;14.60;11.05;;;16.30;99.90;;;;;;5040062;28;20400;-57
2023/04/22 10:12:59;;;;;;;13.63;10.63;;;16.50;99.90;;;;;;5039764;28;20056;-57
2023/04/22 10:15:30;;;;;;;13.95;11.15;;;16.60;99.90;;;;;;4922562;28;20407;-57
2023/04/22 10:17:57;;;;;;;13.75;11.27;;;16.60;99.90;;;;;;4916920;28;20484;-57
2023/04/22 10:20:26;;;;;;;14.07;10.68;;;16.60;99.90;;;;;;5040293;28;20041;-57
2023/04/22 10:22:53;;;;;;;14.98;10.90;;;16.80;99.90;;;;;;4883210;28;20387;-57
2023/04/22 10:25:24;;;;;;;12.90;10.60;;;16.60;99.90;;;;;;4973869;28;20053;-57
2023/04/22 10:28:05;;;;;;;13.57;10.00;;;16.70;99.90;;;;;;4918390;28;20053;-57
2023/04/22 10:30:33;;;;;;;12.90;9.85;;;16.90;99.90;;;;;;4990909;28;20048;-57
2023/04/22 10:33:26;;;;;;;12.57;9.45;;;16.90;99.90;;;;;;4996358;28;20995;-57
2023/04/22 10:36:17;;;;;;;13.32;9.32;;;17.10;99.90;;;;;;4965568;28;20654;-58
2023/04/22 10:38:49;;;;;;;12.75;8.32;;;17.30;99.90;;;;;;4936901;28;20406;-58
2023/04/22 10:41:16;;;;;;;11.68;8.30;;;17.40;99.90;;;;;;4917753;28;20033;-57
2023/04/22 10:43:54;;;;;;;12.38;8.60;;;17.50;99.90;;;;;;5017982;28;20131;-57
2023/04/22 10:46:30;;;;;;;11.98;8.32;;;17.70;99.90;;;;;;5038600;28;20049;-58
2023/04/22 10:48:57;;;;;;;14.80;7.30;;;17.60;99.90;;;;;;4961544;28;20148;-57
2023/04/22 10:51:43;;;;;;;12.05;8.57;;;17.90;99.90;;;;;;5001639;28;20068;-57
2023/04/22 10:54:36;;;;;;;10.60;7.90;;;17.80;99.90;;;;;;4917197;28;20209;-57
2023/04/22 10:57:18;;;;;;;11.90;7.43;;;17.90;99.90;;;;;;4950986;28;20658;-57
2023/04/22 10:59:51;;;;;;;12.20;7.35;;;17.80;99.90;;;;;;5039008;28;20405;-56
2023/04/22 11:02:18;;;;;;;10.43;7.38;;;18.20;99.90;;;;;;5038799;28;20045;-57
2023/04/22 11:04:45;;;;;;;10.98;7.40;;;18.30;99.90;;;;;;5038625;28;20046;-58
2023/04/22 11:07:21;;;;;;;9.90;7.00;;;18.40;99.90;;;;;;5038548;28;20052;-57
2023/04/22 11:09:51;;;;;;;10.55;7.57;;;18.50;99.90;;;;;;5038542;28;20068;-57
2023/04/22 11:12:38;;;;;;;11.65;8.07;;;18.30;99.90;;;;;;5038826;28;20126;-57
2023/04/22 11:15:09;;;;;;;10.40;6.82;;;18.60;99.90;;;;;;5038183;28;20057;-56
2023/04/22 11:17:36;;;;;;;11.05;7.05;;;18.60;99.90;;;;;;5038490;28;20405;-57
2023/04/22 11:20:04;;;;;;;11.63;7.28;;;18.80;99.90;;;;;;5038411;28;20041;-57
2023/04/22 11:22:38;;;;;;;10.65;7.40;;;19.10;99.90;;;;;;5038767;28;20044;-56
2023/04/22 11:25:05;;;;;;;10.48;7.43;;;19.10;99.90;;;;;;5038072;28;20041;-56
2023/04/22 11:27:31;;;;;;;11.68;6.80;;;19.10;99.90;;;;;;5038428;28;20038;-56
2023/04/22 11:30:07;;;;;;;11.07;6.93;;;19.10;99.90;;;;;;5038284;28;20041;-57
2023/04/22 11:32:35;;;;;;;10.50;7.43;;;19.10;99.90;;;;;;5038379;28;20041;-56
2023/04/22 11:35:05;;;;;;;11.05;6.50;;;19.10;99.90;;;;;;5038148;28;20052;-55
2023/04/22 11:37:42;;;;;;;12.98;7.10;;;19.30;99.90;;;;;;5038033;28;20057;-56
2023/04/22 11:40:13;;;;;;;8.77;5.90;;;19.30;99.90;;;;;;5038401;28;20037;-56
2023/04/22 11:42:39;;;;;;;10.80;6.90;;;19.40;99.90;;;;;;5020595;28;20054;-56
2023/04/22 11:45:07;;;;;;;10.00;7.38;;;19.40;99.90;;;;;;5038071;28;20048;-57
2023/04/22 11:47:33;;;;;;;10.60;6.72;;;19.50;99.90;;;;;;5037755;28;20033;-57
2023/04/22 11:50:05;;;;;;;11.27;7.13;;;19.40;99.90;;;;;;5037893;28;20038;-56
2023/04/22 11:52:54;;;;;;;11.13;7.65;;;19.60;99.90;;;;;;5038170;28;20105;-57
2023/04/22 11:55:31;;;;;;;12.32;8.50;;;19.50;99.90;;;;;;5037772;28;20045;-56
2023/04/22 11:58:07;;;;;;;11.38;7.80;;;19.70;99.90;;;;;;5037830;28;20490;-57
2023/04/22 12:00:40;;;;;;;11.32;8.60;;;19.90;99.90;;;;;;5037707;28;20073;-57
2023/04/22 12:03:38;;;;;;;10.57;7.30;;;19.80;99.90;;;;;;5037045;28;20064;-57
2023/04/22 12:06:04;;;;;;;11.30;7.95;;;19.80;99.90;;;;;;5034411;28;20459;-57
2023/04/22 12:08:32;;;;;;;10.88;8.20;;;19.50;99.90;;;;;;5037439;28;20045;-57
2023/04/22 12:11:01;;;;;;;10.68;7.43;;;19.40;99.90;;;;;;5037565;28;20128;-57
2023/04/22 12:13:36;;;;;;;10.73;6.97;;;19.50;99.90;;;;;;5037512;28;20037;-58
2023/04/22 12:16:18;;;;;;;10.18;7.10;;;19.60;99.90;;;;;;5037461;28;20053;-56
2023/04/22 12:18:49;;;;;;;10.23;6.50;;;19.50;99.90;;;;;;5037902;28;20132;-56
2023/04/22 12:21:18;;;;;;;8.85;6.75;;;19.40;99.90;;;;;;5037754;28;20120;-56
2023/04/22 12:23:46;;;;;;;9.15;6.50;;;19.40;99.90;;;;;;5003827;28;20041;-56
2023/04/22 12:26:13;;;;;;;10.85;6.85;;;19.30;99.90;;;;;;5037289;28;20051;-55
2023/04/22 12:28:40;;;;;;;12.10;6.55;;;19.20;99.90;;;;;;5037338;28;20498;-57
2023/04/22 12:31:06;;;;;;;9.43;6.90;;;19.00;99.90;;;;;;5037421;28;20087;-57
2023/04/22 12:33:33;;;;;;;9.48;6.75;;;18.80;99.90;;;;;;5037494;28;20628;-56